Gordon V.sr. — WDB8505 — position and weather

sailwx.info

Track history (hours):
 
Tides and Currents Weather Stations Pressure Air Temp Water Temp Dewpoint Dewpoint Depression Visibility Wind Speed Wind Dir Waves Ship Positions

Gordon V.sr.

Owner: B&G TOWING L.L.C., Lafitte, LA. More information available from US FCC via Universal Licensing System and Coast Guard Vessel Documentation Center.

Last reported at 2015-Jan-29 16:33 UTC. Time now 2015-Jan-30 00:26 UTC.
Position N 29°37' W 090°59'.

MMSI: 365910942.

Date/timePositionNaut miles runAvg speedWind from/ knotsBaromVisibWave heightAir tempDewpointWater temp
2015-Jan-29 16:33N 29°37' W 090°59'6 5.8
2015-Jan-29 15:33N 29°38' W 091°05'5 5.2
2015-Jan-29 14:33N 29°41' W 091°11'5 5.2
2015-Jan-29 13:33N 29°39' W 091°16'5 4.9
2015-Jan-29 12:33N 29°39' W 091°22'5 5.1
2015-Jan-29 11:33N 29°40' W 091°27'5 5.3
2015-Jan-29 10:32N 29°43' W 091°33'4 4.6
2015-Jan-29 09:33N 29°46' W 091°37'6 5.8
2015-Jan-29 08:33N 29°46' W 091°43'6 5.5
2015-Jan-29 07:29N 29°49' W 091°49'1 1.2
2015-Jan-29 06:32N 29°50' W 091°50'3 2.0
2015-Jan-29 05:13N 29°47' W 091°49'3 4.2
2015-Jan-29 04:33N 29°46' W 091°46'4 4.3
2015-Jan-29 03:32N 29°46' W 091°41'5 4.9
2015-Jan-29 02:33N 29°45' W 091°36'4 4.4
2015-Jan-29 01:33N 29°42' W 091°32'6 5.1
2015-Jan-29 00:24N 29°40' W 091°26'5 4.7
2015-Jan-28 23:21N 29°38' W 091°20'4 5.4
2015-Jan-28 22:33N 29°39' W 091°15'5 4.6
2015-Jan-28 21:33N 29°41' W 091°10'1 1.0
2015-Jan-28 20:33N 29°41' W 091°09'4 4.2
2015-Jan-28 19:33N 29°38' W 091°06'5 4.2
2015-Jan-28 18:25N 29°37' W 091°00'4 4.4
2015-Jan-28 17:33N 29°35' W 090°57'13 3.8
2015-Jan-28 14:07N 29°37' W 090°42'3 3.3
2015-Jan-28 13:19N 29°36' W 090°40'33 3.8
2015-Jan-28 04:31N 29°49' W 090°04'6 5.0
2015-Jan-28 03:14N 29°54' W 089°60'33 2.2
2015-Jan-27 12:15N 30°02' W 090°37'6 5.0
2015-Jan-27 11:05N 30°03' W 090°30'8 4.8
2015-Jan-27 09:31N 29°58' W 090°24'5 4.5
2015-Jan-27 08:22N 29°58' W 090°18'5 4.5
2015-Jan-27 07:12N 29°55' W 090°12'4 3.6
2015-Jan-27 06:12N 29°55' W 090°08'4 4.4
2015-Jan-27 05:19N 29°55' W 090°04'3 3.3
2015-Jan-27 04:30N 29°57' W 090°01'0 0.2
2015-Jan-27 03:32N 29°57' W 090°01'0 0.0
2015-Jan-27 02:33N 29°57' W 090°01'2 1.3
2015-Jan-27 01:20N 29°58' W 090°02'3 3.7
2015-Jan-27 00:31N 30°01' W 090°02'2 1.6
2015-Jan-26 23:32N 29°60' W 090°01'5 5.3
2015-Jan-26 22:33N 30°01' W 089°55'1 0.4
2015-Jan-26 20:09N 30°00' W 089°56'3 5.9
2015-Jan-26 19:33N 29°60' W 090°00'1 0.9
2015-Jan-26 18:11N 29°60' W 090°01'3 0.4
2015-Jan-26 08:33N 29°56' W 090°01'0 0.0
2015-Jan-26 07:29N 29°56' W 090°01'0 0.0
2015-Jan-26 06:04N 29°56' W 090°01'0 0.0
2015-Jan-26 05:32N 29°56' W 090°01'0 0.0
2015-Jan-26 04:29N 29°56' W 090°01'0 0.0
2015-Jan-26 03:33N 29°56' W 090°01'0 0.0
2015-Jan-26 02:28N 29°56' W 090°01'0 0.0
2015-Jan-26 01:33N 29°56' W 090°01'0 0.0
2015-Jan-26 00:30N 29°56' W 090°01'0 0.0
2015-Jan-25 23:33N 29°56' W 090°01'0 0.0
2015-Jan-25 22:31N 29°56' W 090°01'0 0.0
2015-Jan-25 21:33N 29°56' W 090°01'0 0.0
2015-Jan-25 20:33N 29°56' W 090°01'0 0.0
2015-Jan-25 19:33N 29°56' W 090°01'0 0.0
2015-Jan-25 18:33N 29°56' W 090°01'3 2.4
2015-Jan-25 17:30N 29°57' W 090°03'2 1.9
2015-Jan-25 16:33N 29°55' W 090°04'3 1.1
2015-Jan-25 13:27N 29°56' W 090°01'0 0.0
2015-Jan-25 00:16N 29°56' W 090°01'0 0.0
2015-Jan-24 23:29N 29°56' W 090°01'0 0.0
2015-Jan-24 22:30N 29°56' W 090°01'0 0.0
2015-Jan-24 21:31N 29°56' W 090°01'0 0.0
2015-Jan-24 20:31N 29°56' W 090°01'0 0.0
2015-Jan-24 19:33N 29°56' W 090°01'0 0.0
2015-Jan-24 18:33N 29°56' W 090°01'0 0.0
2015-Jan-24 17:25N 29°56' W 090°01'0 0.0
2015-Jan-24 16:29N 29°56' W 090°01'0 0.0
2015-Jan-24 15:32N 29°56' W 090°01'2 1.6
2015-Jan-24 14:29N 29°58' W 090°02'1 1.3
2015-Jan-24 13:32N 29°59' W 090°01'0 0.0
2015-Jan-24 12:31N 29°59' W 090°01'0 0.0
2015-Jan-24 11:33N 29°59' W 090°01'0 0.0
2015-Jan-24 10:33N 29°59' W 090°01'0 0.0
2015-Jan-24 09:32N 29°59' W 090°01'0 0.0
2015-Jan-24 08:30N 29°59' W 090°01'0 0.5
2015-Jan-24 07:33N 29°59' W 090°01'1 1.0
2015-Jan-24 06:32N 29°58' W 090°02'1 0.6
2015-Jan-24 05:32N 29°57' W 090°01'1 1.0
2015-Jan-24 04:22N 29°56' W 090°01'0 0.0
2015-Jan-24 03:28N 29°56' W 090°01'0 0.0
2015-Jan-24 02:21N 29°56' W 090°01'0 0.0
2015-Jan-24 01:25N 29°56' W 090°01'0 0.0
2015-Jan-24 00:11N 29°56' W 090°01'1 0.1
2015-Jan-23 09:29N 29°56' W 089°59'0 0.0
2015-Jan-23 08:23N 29°56' W 089°59'1 0.7
2015-Jan-23 07:31N 29°56' W 089°59'1 0.4
2015-Jan-23 05:32N 29°56' W 089°60'6 5.7
2015-Jan-23 04:32N 29°55' W 090°06'5 4.6
2015-Jan-23 03:31N 29°56' W 090°11'7 0.9
2015-Jan-22 19:26N 29°56' W 090°20'2 0.9
2015-Jan-22 17:21N 29°58' W 090°18'7 0.9
2015-Jan-22 09:19N 29°57' W 090°10'2 2.2
2015-Jan-22 08:32N 29°56' W 090°08'3 3.5
2015-Jan-22 07:33N 29°55' W 090°05'3 3.2
2015-Jan-22 06:33N 29°57' W 090°01'5 3.9
2015-Jan-22 05:20N 29°55' W 089°56'4 0.1
2015-Jan-20 04:21N 29°56' W 090°00'  
Track history (hours):
 
Tides and Currents Weather Stations Pressure Air Temp Water Temp Dewpoint Dewpoint Depression Visibility Wind Speed Wind Dir Waves Ship Positions

Gordon V.sr.

Owner: B&G TOWING L.L.C., Lafitte, LA. More information available from US FCC via Universal Licensing System and Coast Guard Vessel Documentation Center.

Last reported at 2015-Jan-29 16:33 UTC. Time now 2015-Jan-30 00:26 UTC.
Position N 29°37' W 090°59'.

MMSI: 365910942.

Date/timePositionNaut miles runAvg speedWind from/ knotsBaromVisibWave heightAir tempDewpointWater temp
2015-Jan-29 16:33N 29°37' W 090°59'6 5.8
2015-Jan-29 15:33N 29°38' W 091°05'5 5.2
2015-Jan-29 14:33N 29°41' W 091°11'5 5.2
2015-Jan-29 13:33N 29°39' W 091°16'5 4.9
2015-Jan-29 12:33N 29°39' W 091°22'5 5.1
2015-Jan-29 11:33N 29°40' W 091°27'5 5.3
2015-Jan-29 10:32N 29°43' W 091°33'4 4.6
2015-Jan-29 09:33N 29°46' W 091°37'6 5.8
2015-Jan-29 08:33N 29°46' W 091°43'6 5.5
2015-Jan-29 07:29N 29°49' W 091°49'1 1.2
2015-Jan-29 06:32N 29°50' W 091°50'3 2.0
2015-Jan-29 05:13N 29°47' W 091°49'3 4.2
2015-Jan-29 04:33N 29°46' W 091°46'4 4.3
2015-Jan-29 03:32N 29°46' W 091°41'5 4.9
2015-Jan-29 02:33N 29°45' W 091°36'4 4.4
2015-Jan-29 01:33N 29°42' W 091°32'6 5.1
2015-Jan-29 00:24N 29°40' W 091°26'5 4.7
2015-Jan-28 23:21N 29°38' W 091°20'4 5.4
2015-Jan-28 22:33N 29°39' W 091°15'5 4.6
2015-Jan-28 21:33N 29°41' W 091°10'1 1.0
2015-Jan-28 20:33N 29°41' W 091°09'4 4.2
2015-Jan-28 19:33N 29°38' W 091°06'5 4.2
2015-Jan-28 18:25N 29°37' W 091°00'4 4.4
2015-Jan-28 17:33N 29°35' W 090°57'13 3.8
2015-Jan-28 14:07N 29°37' W 090°42'3 3.3
2015-Jan-28 13:19N 29°36' W 090°40'33 3.8
2015-Jan-28 04:31N 29°49' W 090°04'6 5.0
2015-Jan-28 03:14N 29°54' W 089°60'33 2.2
2015-Jan-27 12:15N 30°02' W 090°37'6 5.0
2015-Jan-27 11:05N 30°03' W 090°30'8 4.8
2015-Jan-27 09:31N 29°58' W 090°24'5 4.5
2015-Jan-27 08:22N 29°58' W 090°18'5 4.5
2015-Jan-27 07:12N 29°55' W 090°12'4 3.6
2015-Jan-27 06:12N 29°55' W 090°08'4 4.4
2015-Jan-27 05:19N 29°55' W 090°04'3 3.3
2015-Jan-27 04:30N 29°57' W 090°01'0 0.2
2015-Jan-27 03:32N 29°57' W 090°01'0 0.0
2015-Jan-27 02:33N 29°57' W 090°01'2 1.3
2015-Jan-27 01:20N 29°58' W 090°02'3 3.7
2015-Jan-27 00:31N 30°01' W 090°02'2 1.6
2015-Jan-26 23:32N 29°60' W 090°01'5 5.3
2015-Jan-26 22:33N 30°01' W 089°55'1 0.4
2015-Jan-26 20:09N 30°00' W 089°56'3 5.9
2015-Jan-26 19:33N 29°60' W 090°00'1 0.9
2015-Jan-26 18:11N 29°60' W 090°01'3 0.4
2015-Jan-26 08:33N 29°56' W 090°01'0 0.0
2015-Jan-26 07:29N 29°56' W 090°01'0 0.0
2015-Jan-26 06:04N 29°56' W 090°01'0 0.0
2015-Jan-26 05:32N 29°56' W 090°01'0 0.0
2015-Jan-26 04:29N 29°56' W 090°01'0 0.0
2015-Jan-26 03:33N 29°56' W 090°01'0 0.0
2015-Jan-26 02:28N 29°56' W 090°01'0 0.0
2015-Jan-26 01:33N 29°56' W 090°01'0 0.0
2015-Jan-26 00:30N 29°56' W 090°01'0 0.0
2015-Jan-25 23:33N 29°56' W 090°01'0 0.0
2015-Jan-25 22:31N 29°56' W 090°01'0 0.0
2015-Jan-25 21:33N 29°56' W 090°01'0 0.0
2015-Jan-25 20:33N 29°56' W 090°01'0 0.0
2015-Jan-25 19:33N 29°56' W 090°01'0 0.0
2015-Jan-25 18:33N 29°56' W 090°01'3 2.4
2015-Jan-25 17:30N 29°57' W 090°03'2 1.9
2015-Jan-25 16:33N 29°55' W 090°04'3 1.1
2015-Jan-25 13:27N 29°56' W 090°01'0 0.0
2015-Jan-25 00:16N 29°56' W 090°01'0 0.0
2015-Jan-24 23:29N 29°56' W 090°01'0 0.0
2015-Jan-24 22:30N 29°56' W 090°01'0 0.0
2015-Jan-24 21:31N 29°56' W 090°01'0 0.0
2015-Jan-24 20:31N 29°56' W 090°01'0 0.0
2015-Jan-24 19:33N 29°56' W 090°01'0 0.0
2015-Jan-24 18:33N 29°56' W 090°01'0 0.0
2015-Jan-24 17:25N 29°56' W 090°01'0 0.0
2015-Jan-24 16:29N 29°56' W 090°01'0 0.0
2015-Jan-24 15:32N 29°56' W 090°01'2 1.6
2015-Jan-24 14:29N 29°58' W 090°02'1 1.3
2015-Jan-24 13:32N 29°59' W 090°01'0 0.0
2015-Jan-24 12:31N 29°59' W 090°01'0 0.0
2015-Jan-24 11:33N 29°59' W 090°01'0 0.0
2015-Jan-24 10:33N 29°59' W 090°01'0 0.0
2015-Jan-24 09:32N 29°59' W 090°01'0 0.0
2015-Jan-24 08:30N 29°59' W 090°01'0 0.5
2015-Jan-24 07:33N 29°59' W 090°01'1 1.0
2015-Jan-24 06:32N 29°58' W 090°02'1 0.6
2015-Jan-24 05:32N 29°57' W 090°01'1 1.0
2015-Jan-24 04:22N 29°56' W 090°01'0 0.0
2015-Jan-24 03:28N 29°56' W 090°01'0 0.0
2015-Jan-24 02:21N 29°56' W 090°01'0 0.0
2015-Jan-24 01:25N 29°56' W 090°01'0 0.0
2015-Jan-24 00:11N 29°56' W 090°01'1 0.1
2015-Jan-23 09:29N 29°56' W 089°59'0 0.0
2015-Jan-23 08:23N 29°56' W 089°59'1 0.7
2015-Jan-23 07:31N 29°56' W 089°59'1 0.4
2015-Jan-23 05:32N 29°56' W 089°60'6 5.7
2015-Jan-23 04:32N 29°55' W 090°06'5 4.6
2015-Jan-23 03:31N 29°56' W 090°11'7 0.9
2015-Jan-22 19:26N 29°56' W 090°20'2 0.9
2015-Jan-22 17:21N 29°58' W 090°18'7 0.9
2015-Jan-22 09:19N 29°57' W 090°10'2 2.2
2015-Jan-22 08:32N 29°56' W 090°08'3 3.5
2015-Jan-22 07:33N 29°55' W 090°05'3 3.2
2015-Jan-22 06:33N 29°57' W 090°01'5 3.9
2015-Jan-22 05:20N 29°55' W 089°56'4 0.1
2015-Jan-20 04:21N 29°56' W 090°00'  

Dump ship's entire track history